sensor_id;sensor_type;location;lat;lon;timestamp;pressure;altitude;pressure_sealevel;temperature;humidity
55468;BME280;41332;42.702;23.200;2023-07-22T05:56:10;94025.47;;;23.82;65.30
55468;BME280;41332;42.702;23.200;2023-07-22T05:58:36;94027.06;;;24.03;64.90
55468;BME280;41332;42.702;23.200;2023-07-22T06:01:01;94033.28;;;24.20;63.38
55468;BME280;41332;42.702;23.200;2023-07-22T06:03:27;94040.34;;;24.34;63.11
55468;BME280;41332;42.702;23.200;2023-07-22T06:05:53;94041.69;;;24.46;62.72
55468;BME280;41332;42.702;23.200;2023-07-22T06:08:18;94051.88;;;24.55;61.78
55468;BME280;41332;42.702;23.200;2023-07-22T06:10:44;94053.66;;;24.65;61.79
55468;BME280;41332;42.702;23.200;2023-07-22T06:13:10;94054.06;;;24.83;61.68
55468;BME280;41332;42.702;23.200;2023-07-22T06:15:35;94059.94;;;24.98;59.49
55468;BME280;41332;42.702;23.200;2023-07-22T06:18:01;94056.00;;;25.03;58.92
55468;BME280;41332;42.702;23.200;2023-07-22T06:20:27;94055.38;;;25.15;59.91
55468;BME280;41332;42.702;23.200;2023-07-22T06:22:52;94060.88;;;25.28;58.43
55468;BME280;41332;42.702;23.200;2023-07-22T06:25:18;94065.00;;;25.33;58.44
55468;BME280;41332;42.702;23.200;2023-07-22T06:27:43;94067.34;;;25.31;58.42
55468;BME280;41332;42.702;23.200;2023-07-22T06:30:09;94071.88;;;25.34;59.16
55468;BME280;41332;42.702;23.200;2023-07-22T06:32:38;94066.50;;;25.34;59.13
55468;BME280;41332;42.702;23.200;2023-07-22T06:35:04;94073.47;;;25.52;59.16
55468;BME280;41332;42.702;23.200;2023-07-22T06:37:30;94077.44;;;25.63;57.58
55468;BME280;41332;42.702;23.200;2023-07-22T06:39:55;94076.22;;;25.84;56.93
55468;BME280;41332;42.702;23.200;2023-07-22T06:42:21;94078.00;;;25.91;56.84
55468;BME280;41332;42.702;23.200;2023-07-22T06:44:46;94073.44;;;25.88;57.34
55468;BME280;41332;42.702;23.200;2023-07-22T06:47:12;94074.72;;;25.83;57.06
55468;BME280;41332;42.702;23.200;2023-07-22T06:49:38;94066.16;;;25.89;58.56
55468;BME280;41332;42.702;23.200;2023-07-22T06:52:03;94073.41;;;26.08;57.27
55468;BME280;41332;42.702;23.200;2023-07-22T06:54:29;94068.69;;;26.12;57.13
55468;BME280;41332;42.702;23.200;2023-07-22T06:56:54;94062.38;;;26.19;56.74
55468;BME280;41332;42.702;23.200;2023-07-22T06:59:20;94062.28;;;26.39;57.55
55468;BME280;41332;42.702;23.200;2023-07-22T07:01:45;94049.66;;;26.36;56.75
55468;BME280;41332;42.702;23.200;2023-07-22T07:04:10;94065.22;;;26.45;56.03
55468;BME280;41332;42.702;23.200;2023-07-22T07:06:36;94062.44;;;26.48;55.35
55468;BME280;41332;42.702;23.200;2023-07-22T07:09:03;94056.53;;;26.54;54.79
55468;BME280;41332;42.702;23.200;2023-07-22T07:11:30;94060.91;;;26.64;55.54
55468;BME280;41332;42.702;23.200;2023-07-22T07:13:56;94054.50;;;26.74;55.65
55468;BME280;41332;42.702;23.200;2023-07-22T07:16:24;94053.00;;;26.57;55.71
55468;BME280;41332;42.702;23.200;2023-07-22T07:18:50;94059.16;;;26.87;54.22
55468;BME280;41332;42.702;23.200;2023-07-22T07:21:16;94060.41;;;26.98;53.11
55468;BME280;41332;42.702;23.200;2023-07-22T07:23:41;94050.94;;;27.07;54.85
55468;BME280;41332;42.702;23.200;2023-07-22T07:26:07;94056.00;;;27.18;52.59
55468;BME280;41332;42.702;23.200;2023-07-22T07:28:32;94048.59;;;26.79;54.20
55468;BME280;41332;42.702;23.200;2023-07-22T07:30:57;94061.94;;;27.12;55.06
55468;BME280;41332;42.702;23.200;2023-07-22T07:33:23;94056.78;;;27.18;54.22
55468;BME280;41332;42.702;23.200;2023-07-22T07:35:48;94043.72;;;27.29;53.88
55468;BME280;41332;42.702;23.200;2023-07-22T07:38:13;94049.78;;;27.21;54.40
55468;BME280;41332;42.702;23.200;2023-07-22T07:40:39;94046.78;;;27.31;53.98
55468;BME280;41332;42.702;23.200;2023-07-22T07:43:04;94046.97;;;27.37;52.81
55468;BME280;41332;42.702;23.200;2023-07-22T07:45:29;94040.97;;;27.46;52.70
55468;BME280;41332;42.702;23.200;2023-07-22T07:47:55;94044.34;;;27.63;53.58
55468;BME280;41332;42.702;23.200;2023-07-22T07:50:20;94038.53;;;27.65;53.67
55468;BME280;41332;42.702;23.200;2023-07-22T07:52:46;94031.63;;;27.76;52.88
55468;BME280;41332;42.702;23.200;2023-07-22T07:55:11;94033.75;;;27.94;52.42
55468;BME280;41332;42.702;23.200;2023-07-22T07:57:37;94037.66;;;27.80;52.52
55468;BME280;41332;42.702;23.200;2023-07-22T08:00:03;94042.16;;;27.84;52.94
55468;BME280;41332;42.702;23.200;2023-07-22T08:02:28;94043.03;;;27.93;52.52
55468;BME280;41332;42.702;23.200;2023-07-22T08:04:54;94042.41;;;28.15;51.57
55468;BME280;41332;42.702;23.200;2023-07-22T08:07:20;94042.38;;;28.28;51.36
55468;BME280;41332;42.702;23.200;2023-07-22T08:09:48;94039.53;;;28.32;50.77
55468;BME280;41332;42.702;23.200;2023-07-22T08:12:14;94040.63;;;28.56;51.35
55468;BME280;41332;42.702;23.200;2023-07-22T08:14:40;94047.00;;;28.62;50.19
55468;BME280;41332;42.702;23.200;2023-07-22T08:17:05;94039.44;;;28.92;50.23
55468;BME280;41332;42.702;23.200;2023-07-22T08:19:31;94029.13;;;29.00;49.09
55468;BME280;41332;42.702;23.200;2023-07-22T08:21:56;94019.53;;;28.99;49.64
55468;BME280;41332;42.702;23.200;2023-07-22T08:24:21;94039.00;;;28.94;49.28
55468;BME280;41332;42.702;23.200;2023-07-22T08:26:47;94035.34;;;28.88;50.81
55468;BME280;41332;42.702;23.200;2023-07-22T08:29:12;94039.56;;;29.11;49.34
55468;BME280;41332;42.702;23.200;2023-07-22T08:31:38;94030.09;;;29.16;50.87
55468;BME280;41332;42.702;23.200;2023-07-22T08:34:03;94017.19;;;28.88;49.27
55468;BME280;41332;42.702;23.200;2023-07-22T08:36:29;94016.22;;;29.26;49.67
55468;BME280;41332;42.702;23.200;2023-07-22T08:38:54;94001.75;;;29.20;48.82
55468;BME280;41332;42.702;23.200;2023-07-22T08:41:20;93994.94;;;29.38;49.14
55468;BME280;41332;42.702;23.200;2023-07-22T08:43:48;93999.63;;;29.47;48.72
55468;BME280;41332;42.702;23.200;2023-07-22T08:46:19;93996.00;;;29.40;49.12
55468;BME280;41332;42.702;23.200;2023-07-22T08:48:46;93998.69;;;29.72;49.18
55468;BME280;41332;42.702;23.200;2023-07-22T08:51:16;93981.09;;;29.86;47.53
55468;BME280;41332;42.702;23.200;2023-07-22T08:53:47;93986.53;;;29.86;47.83
55468;BME280;41332;42.702;23.200;2023-07-22T08:56:13;93975.81;;;29.73;48.42
55468;BME280;41332;42.702;23.200;2023-07-22T08:58:41;93988.25;;;30.11;47.42
55468;BME280;41332;42.702;23.200;2023-07-22T09:01:07;93987.97;;;30.18;46.34
55468;BME280;41332;42.702;23.200;2023-07-22T09:03:33;93983.91;;;30.41;46.77
55468;BME280;41332;42.702;23.200;2023-07-22T09:05:59;93983.19;;;30.69;46.50
55468;BME280;41332;42.702;23.200;2023-07-22T09:08:24;93979.84;;;30.83;46.15
55468;BME280;41332;42.702;23.200;2023-07-22T09:10:50;93981.97;;;30.33;46.41
55468;BME280;41332;42.702;23.200;2023-07-22T09:13:18;93984.22;;;30.81;47.71
55468;BME280;41332;42.702;23.200;2023-07-22T09:15:44;93974.13;;;30.72;47.10
55468;BME280;41332;42.702;23.200;2023-07-22T09:18:10;93981.19;;;30.88;45.86
55468;BME280;41332;42.702;23.200;2023-07-22T09:20:35;93977.28;;;30.89;46.49
55468;BME280;41332;42.702;23.200;2023-07-22T09:23:01;93970.34;;;30.97;45.61
55468;BME280;41332;42.702;23.200;2023-07-22T09:25:28;93970.00;;;31.14;44.53
55468;BME280;41332;42.702;23.200;2023-07-22T09:27:58;93977.13;;;31.45;45.66
55468;BME280;41332;42.702;23.200;2023-07-22T09:32:52;93983.97;;;31.98;40.97
55468;BME280;41332;42.702;23.200;2023-07-22T09:35:18;93979.91;;;32.27;38.81
55468;BME280;41332;42.702;23.200;2023-07-22T09:37:44;93970.91;;;32.35;35.12
55468;BME280;41332;42.702;23.200;2023-07-22T09:40:26;93969.34;;;32.59;39.82
55468;BME280;41332;42.702;23.200;2023-07-22T09:43:02;93963.03;;;32.77;39.36
55468;BME280;41332;42.702;23.200;2023-07-22T09:45:29;93967.16;;;32.87;36.79
55468;BME280;41332;42.702;23.200;2023-07-22T09:47:55;93965.66;;;33.01;37.90
55468;BME280;41332;42.702;23.200;2023-07-22T09:50:22;93965.94;;;33.18;35.38
55468;BME280;41332;42.702;23.200;2023-07-22T09:52:52;93965.09;;;33.27;37.12
55468;BME280;41332;42.702;23.200;2023-07-22T09:55:20;93953.81;;;33.49;35.74
55468;BME280;41332;42.702;23.200;2023-07-22T09:57:48;93949.00;;;33.59;39.12
55468;BME280;41332;42.702;23.200;2023-07-22T10:00:15;93946.72;;;33.57;36.82
55468;BME280;41332;42.702;23.200;2023-07-22T10:02:42;93960.78;;;33.71;37.15
55468;BME280;41332;42.702;23.200;2023-07-22T10:05:19;93954.88;;;33.72;37.17
55468;BME280;41332;42.702;23.200;2023-07-22T10:07:50;93949.38;;;33.87;37.18
55468;BME280;41332;42.702;23.200;2023-07-22T10:10:20;93951.84;;;34.06;36.30
55468;BME280;41332;42.702;23.200;2023-07-22T10:12:46;93950.88;;;34.09;37.13
55468;BME280;41332;42.702;23.200;2023-07-22T10:15:14;93942.13;;;33.99;36.85
55468;BME280;41332;42.702;23.200;2023-07-22T10:17:41;93946.41;;;34.06;36.45
55468;BME280;41332;42.702;23.200;2023-07-22T10:20:09;93934.81;;;34.11;35.99
55468;BME280;41332;42.702;23.200;2023-07-22T10:22:41;93941.00;;;34.11;35.98
55468;BME280;41332;42.702;23.200;2023-07-22T10:25:07;93937.59;;;34.16;35.45
55468;BME280;41332;42.702;23.200;2023-07-22T10:27:34;93938.94;;;34.27;35.13
55468;BME280;41332;42.702;23.200;2023-07-22T10:30:01;93937.94;;;34.24;35.76
55468;BME280;41332;42.702;23.200;2023-07-22T10:32:33;93943.25;;;34.33;35.68
55468;BME280;41332;42.702;23.200;2023-07-22T10:35:00;93939.63;;;34.22;34.62
55468;BME280;41332;42.702;23.200;2023-07-22T10:37:34;93937.44;;;34.26;35.22
55468;BME280;41332;42.702;23.200;2023-07-22T10:43:10;93923.78;;;34.41;35.13
55468;BME280;41332;42.702;23.200;2023-07-22T10:45:43;93932.63;;;34.36;34.93
55468;BME280;41332;42.702;23.200;2023-07-22T10:48:13;93924.41;;;34.56;35.89
55468;BME280;41332;42.702;23.200;2023-07-22T10:50:39;93924.66;;;34.58;34.56
55468;BME280;41332;42.702;23.200;2023-07-22T10:53:06;93920.69;;;34.54;35.21
55468;BME280;41332;42.702;23.200;2023-07-22T10:56:07;93925.69;;;34.61;31.25
55468;BME280;41332;42.702;23.200;2023-07-22T11:04:27;93921.00;;;34.61;32.66
55468;BME280;41332;42.702;23.200;2023-07-22T11:07:02;93920.84;;;34.71;33.27
55468;BME280;41332;42.702;23.200;2023-07-22T11:11:59;93918.03;;;34.39;31.57
55468;BME280;41332;42.702;23.200;2023-07-22T11:14:27;93922.28;;;34.19;31.12
55468;BME280;41332;42.702;23.200;2023-07-22T11:16:53;93918.72;;;34.13;32.51
55468;BME280;41332;42.702;23.200;2023-07-22T11:19:21;93907.72;;;34.22;33.15
55468;BME280;41332;42.702;23.200;2023-07-22T11:21:48;93912.19;;;34.25;33.31
55468;BME280;41332;42.702;23.200;2023-07-22T11:24:14;93915.13;;;34.01;32.79
55468;BME280;41332;42.702;23.200;2023-07-22T11:26:40;93912.69;;;34.24;34.05
55468;BME280;41332;42.702;23.200;2023-07-22T11:29:06;93913.28;;;34.33;34.35
55468;BME280;41332;42.702;23.200;2023-07-22T11:31:39;93897.03;;;34.45;33.61
55468;BME280;41332;42.702;23.200;2023-07-22T11:34:11;93906.34;;;34.32;34.77
55468;BME280;41332;42.702;23.200;2023-07-22T11:36:37;93899.06;;;34.24;33.83
55468;BME280;41332;42.702;23.200;2023-07-22T11:39:06;93903.16;;;34.34;34.35
55468;BME280;41332;42.702;23.200;2023-07-22T11:41:32;93900.13;;;34.32;33.94
55468;BME280;41332;42.702;23.200;2023-07-22T11:43:59;93890.94;;;34.29;34.32
55468;BME280;41332;42.702;23.200;2023-07-22T11:46:28;93893.25;;;34.37;36.01
55468;BME280;41332;42.702;23.200;2023-07-22T11:48:55;93884.13;;;34.40;33.68
55468;BME280;41332;42.702;23.200;2023-07-22T11:51:21;93888.13;;;34.44;32.96
55468;BME280;41332;42.702;23.200;2023-07-22T11:53:48;93885.19;;;34.48;33.99
55468;BME280;41332;42.702;23.200;2023-07-22T11:56:28;93889.94;;;34.53;34.09
55468;BME280;41332;42.702;23.200;2023-07-22T11:58:56;93895.16;;;34.57;35.23
55468;BME280;41332;42.702;23.200;2023-07-22T12:01:22;93894.00;;;34.63;32.77
55468;BME280;41332;42.702;23.200;2023-07-22T12:03:48;93890.94;;;34.82;32.21
55468;BME280;41332;42.702;23.200;2023-07-22T12:06:14;93890.88;;;34.76;34.07
55468;BME280;41332;42.702;23.200;2023-07-22T12:08:48;93883.72;;;34.79;32.95
55468;BME280;41332;42.702;23.200;2023-07-22T12:11:23;93891.88;;;34.79;32.55
55468;BME280;41332;42.702;23.200;2023-07-22T12:16:30;93876.91;;;34.63;32.48
55468;BME280;41332;42.702;23.200;2023-07-22T12:18:55;93872.25;;;34.69;30.62
55468;BME280;41332;42.702;23.200;2023-07-22T12:21:23;93867.22;;;34.62;34.71
55468;BME280;41332;42.702;23.200;2023-07-22T12:23:48;93873.03;;;34.75;33.47
55468;BME280;41332;42.702;23.200;2023-07-22T12:26:14;93862.59;;;34.74;33.59
55468;BME280;41332;42.702;23.200;2023-07-22T12:28:39;93876.69;;;34.66;33.07
55468;BME280;41332;42.702;23.200;2023-07-22T12:31:04;93867.09;;;34.77;34.46
55468;BME280;41332;42.702;23.200;2023-07-22T12:33:30;93875.69;;;34.70;35.59
55468;BME280;41332;42.702;23.200;2023-07-22T12:35:57;93874.69;;;34.67;35.59
55468;BME280;41332;42.702;23.200;2023-07-22T12:38:22;93862.84;;;34.70;33.76
55468;BME280;41332;42.702;23.200;2023-07-22T12:40:48;93850.69;;;34.71;33.19
55468;BME280;41332;42.702;23.200;2023-07-22T12:43:13;93857.53;;;34.61;31.00
55468;BME280;41332;42.702;23.200;2023-07-22T12:45:39;93842.84;;;34.53;31.66
55468;BME280;41332;42.702;23.200;2023-07-22T12:48:04;93849.81;;;34.54;33.02
55468;BME280;41332;42.702;23.200;2023-07-22T12:50:31;93839.78;;;34.39;31.42
55468;BME280;41332;42.702;23.200;2023-07-22T12:52:59;93846.09;;;34.30;33.06
55468;BME280;41332;42.702;23.200;2023-07-22T12:55:25;93844.59;;;34.29;35.33
55468;BME280;41332;42.702;23.200;2023-07-22T12:57:51;93842.44;;;34.33;37.17
55468;BME280;41332;42.702;23.200;2023-07-22T13:00:16;93837.28;;;34.41;35.31
55468;BME280;41332;42.702;23.200;2023-07-22T13:02:41;93833.97;;;34.58;35.02
55468;BME280;41332;42.702;23.200;2023-07-22T13:05:07;93833.25;;;34.57;31.70
55468;BME280;41332;42.702;23.200;2023-07-22T13:07:32;93836.66;;;34.52;34.53
55468;BME280;41332;42.702;23.200;2023-07-22T13:09:58;93822.97;;;34.46;32.54
55468;BME280;41332;42.702;23.200;2023-07-22T13:12:26;93829.66;;;34.45;33.04
55468;BME280;41332;42.702;23.200;2023-07-22T13:14:51;93830.63;;;34.42;33.40
55468;BME280;41332;42.702;23.200;2023-07-22T13:17:17;93829.81;;;34.36;34.92
55468;BME280;41332;42.702;23.200;2023-07-22T13:19:42;93823.81;;;34.32;34.36
55468;BME280;41332;42.702;23.200;2023-07-22T13:22:07;93820.94;;;34.15;33.96
55468;BME280;41332;42.702;23.200;2023-07-22T13:24:33;93833.06;;;34.14;36.54
55468;BME280;41332;42.702;23.200;2023-07-22T13:26:58;93821.50;;;33.98;36.91
55468;BME280;41332;42.702;23.200;2023-07-22T13:29:23;93826.63;;;33.91;35.67
55468;BME280;41332;42.702;23.200;2023-07-22T13:31:49;93820.25;;;33.94;35.30
55468;BME280;41332;42.702;23.200;2023-07-22T13:34:14;93804.44;;;33.77;33.04
55468;BME280;41332;42.702;23.200;2023-07-22T13:36:40;93815.59;;;33.79;35.51
55468;BME280;41332;42.702;23.200;2023-07-22T13:39:05;93809.41;;;33.79;34.61
55468;BME280;41332;42.702;23.200;2023-07-22T13:41:31;93805.16;;;33.78;32.81
55468;BME280;41332;42.702;23.200;2023-07-22T13:43:56;93803.78;;;33.82;33.59
55468;BME280;41332;42.702;23.200;2023-07-22T13:46:21;93812.44;;;33.81;33.11
55468;BME280;41332;42.702;23.200;2023-07-22T13:48:48;93810.63;;;33.78;36.49
55468;BME280;41332;42.702;23.200;2023-07-22T13:51:13;93810.78;;;33.89;32.45
55468;BME280;41332;42.702;23.200;2023-07-22T13:53:39;93801.38;;;33.90;34.55
55468;BME280;41332;42.702;23.200;2023-07-22T13:56:04;93794.91;;;33.88;34.64
55468;BME280;41332;42.702;23.200;2023-07-22T13:58:30;93804.91;;;33.96;32.97
55468;BME280;41332;42.702;23.200;2023-07-22T14:00:58;93795.97;;;33.96;32.60
55468;BME280;41332;42.702;23.200;2023-07-22T14:03:23;93794.72;;;33.91;30.55
55468;BME280;41332;42.702;23.200;2023-07-22T14:05:49;93787.78;;;33.90;31.38
55468;BME280;41332;42.702;23.200;2023-07-22T14:08:14;93788.03;;;33.92;33.11
55468;BME280;41332;42.702;23.200;2023-07-22T14:10:39;93780.53;;;33.87;31.59
55468;BME280;41332;42.702;23.200;2023-07-22T14:13:05;93789.47;;;33.88;35.54
55468;BME280;41332;42.702;23.200;2023-07-22T14:15:30;93799.59;;;33.87;38.32
55468;BME280;41332;42.702;23.200;2023-07-22T14:17:56;93806.13;;;33.95;37.69
55468;BME280;41332;42.702;23.200;2023-07-22T14:20:21;93806.41;;;33.77;32.01
55468;BME280;41332;42.702;23.200;2023-07-22T14:22:47;93809.81;;;33.72;32.46
55468;BME280;41332;42.702;23.200;2023-07-22T14:25:15;93813.16;;;33.81;35.99
55468;BME280;41332;42.702;23.200;2023-07-22T14:27:40;93814.66;;;33.62;32.83
55468;BME280;41332;42.702;23.200;2023-07-22T14:30:07;93809.41;;;33.58;32.58
55468;BME280;41332;42.702;23.200;2023-07-22T14:32:32;93822.78;;;33.56;30.25
55468;BME280;41332;42.702;23.200;2023-07-22T14:34:58;93822.00;;;33.56;31.68
55468;BME280;41332;42.702;23.200;2023-07-22T14:37:23;93826.09;;;33.66;31.70
55468;BME280;41332;42.702;23.200;2023-07-22T14:39:49;93816.16;;;33.63;30.45
55468;BME280;41332;42.702;23.200;2023-07-22T14:42:14;93808.72;;;33.63;30.73
55468;BME280;41332;42.702;23.200;2023-07-22T14:44:40;93811.66;;;33.60;31.05
55468;BME280;41332;42.702;23.200;2023-07-22T14:47:05;93813.97;;;33.67;31.52
55468;BME280;41332;42.702;23.200;2023-07-22T14:49:30;93798.28;;;33.56;31.04
55468;BME280;41332;42.702;23.200;2023-07-22T14:51:56;93798.81;;;33.60;31.05
55468;BME280;41332;42.702;23.200;2023-07-22T14:54:21;93797.84;;;33.63;29.99
55468;BME280;41332;42.702;23.200;2023-07-22T14:56:47;93801.03;;;33.62;31.78
55468;BME280;41332;42.702;23.200;2023-07-22T14:59:14;93800.38;;;33.67;31.66
55468;BME280;41332;42.702;23.200;2023-07-22T15:01:41;93807.84;;;33.51;32.05
55468;BME280;41332;42.702;23.200;2023-07-22T15:04:07;93806.91;;;33.55;30.50
55468;BME280;41332;42.702;23.200;2023-07-22T15:06:32;93805.19;;;33.36;31.86
55468;BME280;41332;42.702;23.200;2023-07-22T15:08:58;93791.53;;;33.31;30.83
55468;BME280;41332;42.702;23.200;2023-07-22T15:11:24;93805.94;;;33.37;30.18
55468;BME280;41332;42.702;23.200;2023-07-22T15:13:49;93800.16;;;33.50;31.48
55468;BME280;41332;42.702;23.200;2023-07-22T15:16:14;93807.81;;;33.46;30.38
55468;BME280;41332;42.702;23.200;2023-07-22T15:18:41;93799.56;;;33.40;31.47
55468;BME280;41332;42.702;23.200;2023-07-22T15:21:06;93813.69;;;33.44;32.22
55468;BME280;41332;42.702;23.200;2023-07-22T15:23:32;93810.78;;;33.48;32.64
55468;BME280;41332;42.702;23.200;2023-07-22T15:25:57;93798.81;;;33.40;31.97
55468;BME280;41332;42.702;23.200;2023-07-22T15:28:23;93798.28;;;33.35;32.16
55468;BME280;41332;42.702;23.200;2023-07-22T15:30:49;93800.72;;;33.33;31.54
55468;BME280;41332;42.702;23.200;2023-07-22T15:33:14;93794.16;;;33.25;30.00
55468;BME280;41332;42.702;23.200;2023-07-22T15:35:40;93813.09;;;33.19;30.93
55468;BME280;41332;42.702;23.200;2023-07-22T15:38:06;93816.84;;;33.22;30.72
55468;BME280;41332;42.702;23.200;2023-07-22T15:40:34;93814.13;;;33.22;30.30
55468;BME280;41332;42.702;23.200;2023-07-22T15:43:00;93812.44;;;33.25;31.63
55468;BME280;41332;42.702;23.200;2023-07-22T15:45:25;93798.56;;;33.23;31.75
55468;BME280;41332;42.702;23.200;2023-07-22T15:47:51;93801.38;;;33.28;32.43
55468;BME280;41332;42.702;23.200;2023-07-22T15:50:16;93798.34;;;33.26;33.27
55468;BME280;41332;42.702;23.200;2023-07-22T15:52:42;93797.66;;;33.11;32.76
55468;BME280;41332;42.702;23.200;2023-07-22T15:55:08;93802.31;;;32.90;33.64
55468;BME280;41332;42.702;23.200;2023-07-22T15:57:33;93813.78;;;32.64;35.24
55468;BME280;41332;42.702;23.200;2023-07-22T15:59:58;93797.66;;;32.60;34.76
55468;BME280;41332;42.702;23.200;2023-07-22T16:02:24;93799.75;;;32.50;36.02
55468;BME280;41332;42.702;23.200;2023-07-22T16:04:49;93799.75;;;32.20;35.36
55468;BME280;41332;42.702;23.200;2023-07-22T16:07:14;93796.53;;;32.07;36.55
55468;BME280;41332;42.702;23.200;2023-07-22T16:09:40;93791.94;;;31.98;37.10
55468;BME280;41332;42.702;23.200;2023-07-22T16:12:05;93782.00;;;31.95;36.18
55468;BME280;41332;42.702;23.200;2023-07-22T16:14:31;93778.00;;;31.91;38.80
55468;BME280;41332;42.702;23.200;2023-07-22T16:16:56;93775.44;;;31.87;39.25
55468;BME280;41332;42.702;23.200;2023-07-22T16:19:22;93767.91;;;31.67;38.04
55468;BME280;41332;42.702;23.200;2023-07-22T16:21:47;93753.50;;;31.61;38.55
55468;BME280;41332;42.702;23.200;2023-07-22T16:24:12;93754.91;;;31.71;41.30
55468;BME280;41332;42.702;23.200;2023-07-22T16:26:38;93757.53;;;31.65;41.85
55468;BME280;41332;42.702;23.200;2023-07-22T16:29:05;93758.47;;;31.62;41.52
55468;BME280;41332;42.702;23.200;2023-07-22T16:31:31;93756.94;;;31.61;41.87
55468;BME280;41332;42.702;23.200;2023-07-22T16:33:56;93758.47;;;31.62;43.39
55468;BME280;41332;42.702;23.200;2023-07-22T16:36:25;93765.09;;;31.61;43.22
55468;BME280;41332;42.702;23.200;2023-07-22T16:38:56;93762.53;;;31.58;43.57
55468;BME280;41332;42.702;23.200;2023-07-22T16:41:22;93756.94;;;31.61;42.67
55468;BME280;41332;42.702;23.200;2023-07-22T16:43:48;93762.28;;;31.55;42.38
55468;BME280;41332;42.702;23.200;2023-07-22T16:46:13;93764.31;;;31.46;42.61
55468;BME280;41332;42.702;23.200;2023-07-22T16:48:39;93765.69;;;31.41;44.21
55468;BME280;41332;42.702;23.200;2023-07-22T16:51:04;93776.72;;;31.37;45.16
55468;BME280;41332;42.702;23.200;2023-07-22T16:53:29;93786.00;;;31.46;45.90
55468;BME280;41332;42.702;23.200;2023-07-22T16:55:55;93785.66;;;31.53;44.38
55468;BME280;41332;42.702;23.200;2023-07-22T16:58:20;93803.84;;;31.37;43.43
55468;BME280;41332;42.702;23.200;2023-07-22T17:00:46;93807.69;;;31.21;41.26
55468;BME280;41332;42.702;23.200;2023-07-22T17:03:13;93814.53;;;31.17;38.55
55468;BME280;41332;42.702;23.200;2023-07-22T17:05:38;93818.91;;;31.14;41.62
55468;BME280;41332;42.702;23.200;2023-07-22T17:08:04;93824.22;;;30.99;43.10
55468;BME280;41332;42.702;23.200;2023-07-22T17:10:33;93822.63;;;30.83;44.15
55468;BME280;41332;42.702;23.200;2023-07-22T17:12:58;93824.47;;;30.77;42.02
55468;BME280;41332;42.702;23.200;2023-07-22T17:15:23;93826.94;;;30.56;37.77
55468;BME280;41332;42.702;23.200;2023-07-22T17:17:49;93828.31;;;30.42;37.25
55468;BME280;41332;42.702;23.200;2023-07-22T17:20:14;93831.63;;;30.37;39.47
55468;BME280;41332;42.702;23.200;2023-07-22T17:22:40;93833.88;;;30.39;42.17
55468;BME280;41332;42.702;23.200;2023-07-22T17:25:05;93838.41;;;30.33;41.20
55468;BME280;41332;42.702;23.200;2023-07-22T17:27:31;93828.19;;;30.37;42.30
55468;BME280;41332;42.702;23.200;2023-07-22T17:29:56;93813.75;;;30.31;42.84
55468;BME280;41332;42.702;23.200;2023-07-22T17:32:22;93797.97;;;30.20;44.47
55468;BME280;41332;42.702;23.200;2023-07-22T17:34:47;93797.53;;;30.12;45.27
55468;BME280;41332;42.702;23.200;2023-07-22T17:37:13;93808.81;;;30.11;45.56
55468;BME280;41332;42.702;23.200;2023-07-22T17:39:38;93832.44;;;30.10;45.46
55468;BME280;41332;42.702;23.200;2023-07-22T17:42:04;93844.16;;;30.07;45.94
55468;BME280;41332;42.702;23.200;2023-07-22T17:44:30;93853.34;;;30.00;45.72
55468;BME280;41332;42.702;23.200;2023-07-22T17:46:56;93852.59;;;29.90;45.89
55468;BME280;41332;42.702;23.200;2023-07-22T17:49:23;93874.22;;;29.81;47.53
55468;BME280;41332;42.702;23.200;2023-07-22T17:51:48;93859.63;;;29.69;48.07
55468;BME280;41332;42.702;23.200;2023-07-22T17:54:14;93872.53;;;29.56;47.99
55468;BME280;41332;42.702;23.200;2023-07-22T17:56:39;93875.88;;;29.60;47.63
55468;BME280;41332;42.702;23.200;2023-07-22T17:59:04;93872.81;;;29.39;49.44
55468;BME280;41332;42.702;23.200;2023-07-22T18:01:30;93879.69;;;29.31;49.22
55468;BME280;41332;42.702;23.200;2023-07-22T18:03:55;93884.16;;;29.25;50.25
55468;BME280;41332;42.702;23.200;2023-07-22T18:06:21;93884.16;;;29.25;48.87
55468;BME280;41332;42.702;23.200;2023-07-22T18:08:47;93877.94;;;29.06;50.10
55468;BME280;41332;42.702;23.200;2023-07-22T18:11:12;93868.00;;;29.03;49.39
55468;BME280;41332;42.702;23.200;2023-07-22T18:13:38;93874.84;;;28.85;49.72
55468;BME280;41332;42.702;23.200;2023-07-22T18:16:03;93876.13;;;28.71;50.43
55468;BME280;41332;42.702;23.200;2023-07-22T18:18:29;93879.16;;;28.73;50.71
55468;BME280;41332;42.702;23.200;2023-07-22T18:20:54;93871.47;;;28.72;50.36
55468;BME280;41332;42.702;23.200;2023-07-22T18:23:20;93883.19;;;28.69;50.65
55468;BME280;41332;42.702;23.200;2023-07-22T18:25:45;93887.38;;;28.70;50.48
55468;BME280;41332;42.702;23.200;2023-07-22T18:28:10;93883.56;;;28.58;51.82
55468;BME280;41332;42.702;23.200;2023-07-22T18:30:36;93894.59;;;28.51;51.04
55468;BME280;41332;42.702;23.200;2023-07-22T18:33:01;93890.66;;;28.42;51.70
55468;BME280;41332;42.702;23.200;2023-07-22T18:35:26;93894.56;;;28.19;52.44
55468;BME280;41332;42.702;23.200;2023-07-22T18:37:52;93903.00;;;28.08;52.98
55468;BME280;41332;42.702;23.200;2023-07-22T18:40:17;93902.72;;;27.93;52.33
55468;BME280;41332;42.702;23.200;2023-07-22T18:42:42;93914.59;;;27.96;52.62
55468;BME280;41332;42.702;23.200;2023-07-22T18:45:08;93901.94;;;27.93;52.43
55468;BME280;41332;42.702;23.200;2023-07-22T18:47:34;93903.16;;;27.92;51.61
55468;BME280;41332;42.702;23.200;2023-07-22T18:49:59;93905.56;;;27.77;52.99
55468;BME280;41332;42.702;23.200;2023-07-22T18:52:25;93910.13;;;27.67;53.28
55468;BME280;41332;42.702;23.200;2023-07-22T18:54:50;93918.88;;;27.58;53.37
55468;BME280;41332;42.702;23.200;2023-07-22T18:57:16;93910.69;;;26.97;56.29